createdAt,value
2017-11-08T00:01:35.737Z,8.80
2017-11-08T00:04:03.853Z,7.68
2017-11-08T00:06:32.001Z,7.45
2017-11-08T00:09:00.142Z,8.15
2017-11-08T00:11:28.301Z,6.85
2017-11-08T00:13:57.192Z,8.25
2017-11-08T00:16:25.336Z,7.90
2017-11-08T00:18:53.470Z,8.70
2017-11-08T00:21:21.621Z,8.23
2017-11-08T00:23:49.754Z,7.72
2017-11-08T00:26:17.902Z,7.80
2017-11-08T00:28:46.040Z,7.68
2017-11-08T00:31:14.962Z,7.50
2017-11-08T00:33:43.090Z,8.20
2017-11-08T00:36:12.014Z,7.18
2017-11-08T00:38:40.160Z,7.90
2017-11-08T00:41:09.090Z,9.60
2017-11-08T00:43:37.227Z,9.05
2017-11-08T00:46:06.155Z,10.77
2017-11-08T00:48:34.282Z,8.38
2017-11-08T00:51:02.439Z,10.20
2017-11-08T00:53:30.589Z,7.85
2017-11-08T00:55:58.744Z,10.73
2017-11-08T00:58:26.869Z,9.23
2017-11-08T01:00:59.950Z,14.07
2017-11-08T01:03:28.073Z,9.98
2017-11-08T01:05:56.234Z,10.60
2017-11-08T01:08:24.370Z,12.20
2017-11-08T01:10:52.538Z,10.50
2017-11-08T01:13:20.682Z,11.32
2017-11-08T01:15:48.849Z,11.35
2017-11-08T01:18:16.985Z,11.20
2017-11-08T01:20:45.922Z,11.95
2017-11-08T01:23:14.061Z,13.10
2017-11-08T01:25:42.962Z,11.88
2017-11-08T01:28:11.113Z,14.00
2017-11-08T01:30:40.022Z,12.27
2017-11-08T01:33:08.178Z,13.15
2017-11-08T01:35:37.089Z,13.50
2017-11-08T01:38:10.956Z,14.10
2017-11-08T01:40:44.042Z,15.00
2017-11-08T01:43:12.199Z,14.50
2017-11-08T01:45:42.114Z,14.73
2017-11-08T01:48:10.285Z,15.70
2017-11-08T01:50:39.198Z,15.57
2017-11-08T01:53:07.357Z,13.90
2017-11-08T01:55:38.419Z,13.95
2017-11-08T01:58:06.604Z,15.65
2017-11-08T02:00:34.741Z,16.15
2017-11-08T02:03:02.898Z,15.85
2017-11-08T02:05:31.035Z,17.20
2017-11-08T02:07:59.190Z,15.77
2017-11-08T02:10:28.358Z,17.98
2017-11-08T02:12:56.520Z,16.65
2017-11-08T02:15:24.656Z,17.62
2017-11-08T02:17:52.817Z,15.95
2017-11-08T02:20:21.713Z,20.25
2017-11-08T02:22:49.878Z,17.42
2017-11-08T02:25:18.807Z,16.65
2017-11-08T02:27:46.962Z,17.17
2017-11-08T02:30:15.853Z,18.85
2017-11-08T02:32:44.012Z,18.45
2017-11-08T02:35:12.916Z,20.12
2017-11-08T02:37:41.849Z,20.10
2017-11-08T02:40:10.033Z,22.50
2017-11-08T02:42:38.196Z,21.30
2017-11-08T02:45:08.352Z,21.37
2017-11-08T02:47:36.509Z,19.70
2017-11-08T02:50:04.676Z,22.98
2017-11-08T02:52:32.841Z,21.37
2017-11-08T02:55:02.828Z,23.17
2017-11-08T02:57:30.962Z,23.00
2017-11-08T02:59:59.119Z,21.83
2017-11-08T03:02:30.169Z,23.27
2017-11-08T03:07:53.367Z,21.37
2017-11-08T03:10:22.293Z,23.55
2017-11-08T03:12:50.436Z,21.42
2017-11-08T03:15:19.382Z,24.52
2017-11-08T03:17:47.511Z,24.17
2017-11-08T03:20:15.667Z,23.60
2017-11-08T03:22:43.798Z,22.33
2017-11-08T03:25:11.956Z,24.40
2017-11-08T03:27:40.080Z,25.23
2017-11-08T03:30:08.244Z,24.83
2017-11-08T03:32:36.377Z,25.73
2017-11-08T03:35:04.543Z,23.67
2017-11-08T03:37:32.674Z,26.62
2017-11-08T03:40:00.829Z,23.70
2017-11-08T03:42:28.962Z,23.65
2017-11-08T03:44:57.123Z,22.87
2017-11-08T03:47:25.250Z,25.83
2017-11-08T03:49:53.426Z,21.17
2017-11-08T03:52:21.579Z,27.98
2017-11-08T03:54:49.714Z,24.30
2017-11-08T03:57:17.876Z,25.83
2017-11-08T03:59:46.028Z,26.33
2017-11-08T04:02:14.188Z,26.42
2017-11-08T04:04:42.312Z,25.45
2017-11-08T04:07:10.467Z,23.80
2017-11-08T04:09:38.602Z,25.60
2017-11-08T04:12:06.770Z,24.33
2017-11-08T04:14:34.905Z,24.00
2017-11-08T04:17:03.063Z,26.83
2017-11-08T04:19:31.197Z,23.92
2017-11-08T04:21:59.349Z,26.83
2017-11-08T04:24:27.510Z,27.45
2017-11-08T04:26:55.665Z,24.58
2017-11-08T04:29:23.810Z,26.85
2017-11-08T04:31:51.967Z,28.00
2017-11-08T04:34:20.093Z,28.10
2017-11-08T04:36:48.250Z,27.60
2017-11-08T04:39:16.381Z,28.38
2017-11-08T04:41:44.529Z,25.33
2017-11-08T04:44:12.669Z,26.92
2017-11-08T04:46:41.585Z,26.52
2017-11-08T04:49:09.741Z,26.87
2017-11-08T04:51:37.902Z,26.50
2017-11-08T04:54:06.029Z,27.62
2017-11-08T04:56:34.189Z,28.20
2017-11-08T04:59:02.321Z,29.20
2017-11-08T05:01:31.241Z,27.23
2017-11-08T05:03:59.370Z,28.95
2017-11-08T05:06:27.529Z,33.42
2017-11-08T05:08:55.653Z,29.25
2017-11-08T05:11:23.823Z,30.77
2017-11-08T05:13:51.984Z,30.52
2017-11-08T05:16:20.873Z,30.58
2017-11-08T05:18:49.026Z,30.52
2017-11-08T05:21:17.173Z,33.63
2017-11-08T05:23:45.331Z,32.40
2017-11-08T05:26:13.461Z,33.05
2017-11-08T05:28:41.621Z,33.13
2017-11-08T05:31:09.749Z,34.17
2017-11-08T05:33:37.905Z,32.55
2017-11-08T05:36:06.562Z,30.62
2017-11-08T05:38:34.722Z,32.88
2017-11-08T05:41:02.855Z,32.72
2017-11-08T05:43:31.014Z,31.85
2017-11-08T05:45:59.143Z,33.65
2017-11-08T05:48:27.308Z,33.60
2017-11-08T05:50:55.468Z,32.92
2017-11-08T05:53:23.645Z,29.55
2017-11-08T05:55:51.794Z,33.05
2017-11-08T05:58:19.931Z,33.90
2017-11-08T06:00:48.106Z,34.50
2017-11-08T06:03:16.999Z,38.45
2017-11-08T06:05:45.126Z,37.28
2017-11-08T06:08:13.283Z,36.72
2017-11-08T06:10:41.413Z,40.38
2017-11-08T06:13:09.594Z,36.75
2017-11-08T06:15:37.730Z,39.88
2017-11-08T06:18:05.882Z,38.92
2017-11-08T06:20:34.010Z,38.75
2017-11-08T06:23:02.169Z,37.15
2017-11-08T06:25:30.335Z,39.10
2017-11-08T06:27:58.508Z,38.22
2017-11-08T06:30:26.682Z,36.10
2017-11-08T06:32:54.846Z,38.85
2017-11-08T06:35:22.978Z,36.05
2017-11-08T06:37:51.135Z,36.65
2017-11-08T06:40:19.270Z,35.13
2017-11-08T06:42:47.425Z,38.33
2017-11-08T06:45:15.545Z,37.95
2017-11-08T06:47:44.470Z,35.53
2017-11-08T06:50:12.602Z,37.67
2017-11-08T06:52:40.725Z,35.70
2017-11-08T06:55:08.878Z,37.03
2017-11-08T06:57:37.007Z,37.25
2017-11-08T07:00:05.166Z,38.10
2017-11-08T07:02:33.289Z,36.08
2017-11-08T07:05:01.449Z,35.42
2017-11-08T07:07:29.591Z,38.13
2017-11-08T07:09:57.744Z,36.58
2017-11-08T07:12:25.869Z,35.55
2017-11-08T07:14:54.800Z,39.08
2017-11-08T07:17:22.933Z,38.78
2017-11-08T07:19:51.854Z,35.85
2017-11-08T07:22:22.812Z,38.45
2017-11-08T07:24:50.974Z,38.22
2017-11-08T07:27:19.102Z,38.35
2017-11-08T07:29:47.269Z,36.78
2017-11-08T07:32:15.393Z,35.10
2017-11-08T07:34:43.525Z,38.58
2017-11-08T07:37:11.680Z,37.38
2017-11-08T07:39:39.815Z,40.42
2017-11-08T07:42:07.957Z,38.20
2017-11-08T07:44:36.912Z,39.25
2017-11-08T07:47:05.061Z,35.53
2017-11-08T07:49:33.189Z,38.40
2017-11-08T07:52:10.369Z,39.50
2017-11-08T07:54:39.262Z,39.05
2017-11-08T07:57:07.416Z,35.95
2017-11-08T07:59:38.457Z,35.72
2017-11-08T08:02:06.605Z,34.72
2017-11-08T08:04:34.737Z,36.15
2017-11-08T08:07:02.893Z,36.72
2017-11-08T08:09:34.643Z,36.10
2017-11-08T08:12:02.797Z,36.13
2017-11-08T08:14:30.924Z,34.72
2017-11-08T08:16:59.081Z,37.67
2017-11-08T08:19:27.997Z,33.88
2017-11-08T08:21:56.149Z,35.10
2017-11-08T08:24:25.043Z,37.72
2017-11-08T08:26:53.198Z,36.28
2017-11-08T08:29:22.104Z,35.22
2017-11-08T08:31:50.264Z,36.20
2017-11-08T08:34:19.154Z,37.17
2017-11-08T08:36:47.301Z,35.60
2017-11-08T08:39:15.433Z,37.10
2017-11-08T08:41:43.592Z,36.30
2017-11-08T08:44:12.520Z,34.70
2017-11-08T08:46:40.690Z,35.67
2017-11-08T08:49:08.824Z,35.50
2017-11-08T08:51:36.981Z,37.75
2017-11-08T08:54:05.124Z,36.92
2017-11-08T08:56:33.280Z,37.45
2017-11-08T08:59:01.758Z,37.30
2017-11-08T09:01:30.405Z,37.40
2017-11-08T09:03:58.577Z,36.90
2017-11-08T09:06:27.497Z,35.83
2017-11-08T09:08:55.622Z,39.00
2017-11-08T09:11:23.813Z,38.63
2017-11-08T09:13:52.706Z,37.17
2017-11-08T09:16:21.630Z,37.42
2017-11-08T09:18:49.759Z,38.03
2017-11-08T09:21:17.914Z,37.88
2017-11-08T09:23:46.051Z,38.17
2017-11-08T09:26:16.142Z,40.63
2017-11-08T09:28:45.039Z,40.25
2017-11-08T09:31:18.749Z,39.92
2017-11-08T09:33:46.882Z,41.45
2017-11-08T09:36:15.045Z,40.00
2017-11-08T09:38:43.237Z,39.33
2017-11-08T09:41:11.394Z,39.40
2017-11-08T09:43:39.526Z,36.13
2017-11-08T09:46:07.690Z,39.60
2017-11-08T09:48:35.816Z,37.00
2017-11-08T09:51:03.974Z,39.95
2017-11-08T09:53:32.102Z,39.28
2017-11-08T09:56:00.265Z,39.38
2017-11-08T09:58:28.397Z,38.88
2017-11-08T10:00:56.546Z,40.12
2017-11-08T10:03:24.672Z,42.78
2017-11-08T10:05:52.847Z,41.88
2017-11-08T10:08:21.029Z,40.15
2017-11-08T10:10:49.934Z,40.83
2017-11-08T10:13:19.345Z,39.85
2017-11-08T10:15:47.468Z,41.67
2017-11-08T10:18:15.626Z,42.70
2017-11-08T10:20:43.758Z,42.53
2017-11-08T10:23:11.944Z,42.20
2017-11-08T10:25:40.074Z,39.17
2017-11-08T10:28:08.234Z,38.53
2017-11-08T10:30:36.361Z,41.10
2017-11-08T10:33:04.520Z,40.25
2017-11-08T10:35:33.410Z,42.50
2017-11-08T10:38:01.563Z,41.50
2017-11-08T10:40:29.703Z,39.75
2017-11-08T10:42:57.840Z,37.03
2017-11-08T10:45:25.998Z,39.10
2017-11-08T10:47:54.158Z,41.80
2017-11-08T10:50:22.314Z,40.17
2017-11-08T10:52:54.410Z,40.10
2017-11-08T10:55:22.545Z,41.15
2017-11-08T10:57:50.706Z,41.03
2017-11-08T11:00:24.440Z,40.12
2017-11-08T11:02:59.762Z,39.47
2017-11-08T11:05:28.660Z,38.10
2017-11-08T11:07:56.822Z,38.30
2017-11-08T11:10:25.736Z,39.35
2017-11-08T11:12:53.894Z,42.13
2017-11-08T11:15:22.026Z,38.83
2017-11-08T11:17:50.190Z,40.75
2017-11-08T11:20:19.235Z,36.92
2017-11-08T11:22:47.396Z,36.78
2017-11-08T11:25:16.472Z,37.92
2017-11-08T11:27:44.634Z,38.60
2017-11-08T11:30:14.690Z,38.58
2017-11-08T11:32:43.636Z,41.13
2017-11-08T11:35:11.762Z,39.80
2017-11-08T11:37:45.499Z,40.28
2017-11-08T11:40:13.645Z,41.10
2017-11-08T11:42:41.823Z,39.30
2017-11-08T11:45:10.732Z,38.20
2017-11-08T11:47:38.908Z,38.33
2017-11-08T11:50:07.038Z,39.05
2017-11-08T11:52:35.223Z,38.05
2017-11-08T11:55:03.404Z,39.90
2017-11-08T11:57:31.535Z,37.72
2017-11-08T12:00:02.627Z,37.85
2017-11-08T12:02:31.525Z,38.97
2017-11-08T12:04:59.681Z,38.72
2017-11-08T12:07:27.821Z,41.35
2017-11-08T12:09:55.977Z,40.80
2017-11-08T12:12:24.116Z,39.10
2017-11-08T12:14:52.277Z,39.10
2017-11-08T12:17:20.411Z,38.58
2017-11-08T12:19:48.574Z,41.75
2017-11-08T12:22:16.698Z,36.58
2017-11-08T12:24:44.859Z,37.10
2017-11-08T12:27:14.745Z,38.03
2017-11-08T12:29:42.908Z,41.00
2017-11-08T12:32:11.035Z,37.22
2017-11-08T12:34:39.811Z,40.12
2017-11-08T12:37:07.943Z,41.40
2017-11-08T12:39:36.079Z,38.42
2017-11-08T12:42:04.238Z,36.85
2017-11-08T12:47:34.350Z,39.28
2017-11-08T12:50:02.506Z,37.92
2017-11-08T12:52:30.636Z,37.65
2017-11-08T12:54:58.820Z,34.38
2017-11-08T12:57:26.953Z,35.00
2017-11-08T12:59:55.096Z,35.33
2017-11-08T13:02:23.252Z,35.33
2017-11-08T13:04:51.386Z,34.88
2017-11-08T13:07:19.538Z,38.55
2017-11-08T13:09:47.672Z,33.80
2017-11-08T13:12:16.588Z,33.70
2017-11-08T13:14:44.718Z,33.30
2017-11-08T13:17:13.662Z,33.03
2017-11-08T13:19:41.801Z,33.45
2017-11-08T13:22:10.733Z,36.45
2017-11-08T13:24:38.869Z,33.85
2017-11-08T13:27:07.800Z,35.95
2017-11-08T13:29:35.953Z,34.95
2017-11-08T13:32:04.114Z,33.85
2017-11-08T13:34:32.243Z,33.50
2017-11-08T13:37:00.394Z,37.10
2017-11-08T13:39:28.558Z,36.20
2017-11-08T13:41:56.735Z,34.75
2017-11-08T13:44:24.870Z,34.03
2017-11-08T13:46:53.039Z,32.10
2017-11-08T13:49:21.935Z,33.88
2017-11-08T13:51:50.071Z,34.40
2017-11-08T13:54:18.247Z,33.08
2017-11-08T13:56:47.054Z,30.73
2017-11-08T13:59:15.215Z,33.58
2017-11-08T14:01:43.337Z,31.58
2017-11-08T14:04:11.497Z,31.35
2017-11-08T14:06:39.639Z,31.00
2017-11-08T14:09:07.795Z,32.70
2017-11-08T14:11:35.933Z,32.80
2017-11-08T14:14:04.094Z,31.17
2017-11-08T14:16:32.221Z,34.63
2017-11-08T14:19:00.388Z,31.50
2017-11-08T14:21:28.523Z,34.03
2017-11-08T14:23:56.694Z,34.97
2017-11-08T14:26:24.828Z,31.62
2017-11-08T14:28:53.008Z,32.03
2017-11-08T14:31:21.151Z,34.38
2017-11-08T14:33:49.297Z,30.48
2017-11-08T14:36:17.472Z,32.08
2017-11-08T14:38:45.606Z,33.10
2017-11-08T14:41:13.766Z,32.83
2017-11-08T14:43:41.894Z,34.22
2017-11-08T14:46:10.047Z,31.85
2017-11-08T14:48:38.178Z,30.25
2017-11-08T14:51:06.379Z,34.50
2017-11-08T14:53:40.120Z,32.53
2017-11-08T14:56:08.712Z,32.45
2017-11-08T14:58:36.856Z,32.55
2017-11-08T15:01:05.035Z,30.67
2017-11-08T15:03:33.212Z,31.33
2017-11-08T15:06:01.375Z,30.60
2017-11-08T15:08:30.532Z,31.45
2017-11-08T15:10:58.685Z,30.83
2017-11-08T15:13:26.810Z,32.47
2017-11-08T15:15:54.962Z,30.67
2017-11-08T15:18:23.094Z,32.25
2017-11-08T15:20:51.421Z,34.15
2017-11-08T15:23:19.552Z,35.20
2017-11-08T15:25:47.733Z,31.00
2017-11-08T15:28:15.873Z,33.75
2017-11-08T15:30:44.026Z,34.70
2017-11-08T15:33:12.181Z,32.22
2017-11-08T15:35:40.310Z,30.45
2017-11-08T15:38:08.498Z,33.78
2017-11-08T15:40:36.635Z,30.80
2017-11-08T15:43:05.558Z,35.58
2017-11-08T15:45:33.699Z,31.25
2017-11-08T15:48:02.628Z,33.25
2017-11-08T15:50:30.765Z,33.53
2017-11-08T15:52:59.694Z,35.40
2017-11-08T15:55:27.826Z,31.98
2017-11-08T15:57:56.788Z,30.42
2017-11-08T16:00:24.929Z,33.38
2017-11-08T16:02:53.094Z,31.50
2017-11-08T16:05:21.226Z,34.10
2017-11-08T16:07:49.409Z,33.20
2017-11-08T16:10:18.398Z,33.45
2017-11-08T16:12:51.104Z,31.17
2017-11-08T16:15:19.307Z,33.50
2017-11-08T16:17:52.442Z,33.75
2017-11-08T16:20:22.357Z,34.22
2017-11-08T16:22:51.345Z,32.83
2017-11-08T16:25:19.521Z,32.35
2017-11-08T16:27:49.427Z,36.20
2017-11-08T16:30:17.568Z,33.90
2017-11-08T16:32:45.969Z,33.40
2017-11-08T16:35:14.158Z,33.35
2017-11-08T16:37:42.314Z,32.00
2017-11-08T16:40:10.576Z,36.25
2017-11-08T16:42:38.809Z,34.63
2017-11-08T16:45:06.985Z,35.55
2017-11-08T16:47:35.178Z,35.75
2017-11-08T16:50:03.388Z,37.33
2017-11-08T16:52:31.542Z,34.95
2017-11-08T16:54:59.736Z,36.78
2017-11-08T16:57:27.875Z,37.47
2017-11-08T16:59:56.056Z,32.17
2017-11-08T17:02:24.253Z,34.25
2017-11-08T17:04:52.464Z,33.45
2017-11-08T17:07:20.658Z,36.08
2017-11-08T17:09:48.843Z,36.00
2017-11-08T17:12:16.999Z,37.78
2017-11-08T17:14:45.189Z,38.15
2017-11-08T17:17:13.317Z,31.30
2017-11-08T17:19:41.541Z,36.63
2017-11-08T17:22:09.728Z,34.25
2017-11-08T17:24:37.906Z,33.28
2017-11-08T17:27:06.082Z,34.42
2017-11-08T17:29:35.404Z,32.75
2017-11-08T17:32:03.681Z,34.22
2017-11-08T17:34:31.832Z,35.45
2017-11-08T17:37:00.074Z,34.80
2017-11-08T17:39:28.462Z,33.60
2017-11-08T17:41:57.336Z,35.03
2017-11-08T17:44:25.586Z,33.78
2017-11-08T17:46:53.952Z,33.78
2017-11-08T17:49:22.289Z,35.78
2017-11-08T17:51:50.974Z,32.30
2017-11-08T17:54:19.651Z,33.55
2017-11-08T17:56:48.241Z,34.05
2017-11-08T17:59:16.674Z,33.03
2017-11-08T18:01:45.523Z,33.53
2017-11-08T18:04:14.073Z,32.78
2017-11-08T18:06:42.288Z,35.70
2017-11-08T18:09:10.476Z,33.00
2017-11-08T18:11:38.656Z,34.83
2017-11-08T18:14:07.538Z,32.70
2017-11-08T18:16:36.250Z,34.33
2017-11-08T18:19:05.115Z,33.72
2017-11-08T18:21:33.314Z,36.17
2017-11-08T18:24:01.813Z,34.42
2017-11-08T18:26:30.687Z,34.05
2017-11-08T18:28:58.853Z,35.60
2017-11-08T18:31:28.036Z,33.55
2017-11-08T18:33:56.714Z,35.97
2017-11-08T18:36:26.659Z,35.85
2017-11-08T18:38:56.102Z,33.97
2017-11-08T18:41:25.335Z,32.45
2017-11-08T18:43:54.022Z,36.50
2017-11-08T18:46:22.480Z,33.20
2017-11-08T18:48:50.927Z,36.08
2017-11-08T18:51:19.362Z,36.63
2017-11-08T18:53:48.095Z,36.33
2017-11-08T18:56:17.262Z,36.53
2017-11-08T18:58:45.703Z,35.90
2017-11-08T19:01:14.332Z,36.97
2017-11-08T19:03:42.826Z,36.83
2017-11-08T19:06:12.718Z,37.72
2017-11-08T19:08:41.424Z,36.85
2017-11-08T19:11:10.032Z,35.30
2017-11-08T19:13:40.007Z,39.97
2017-11-08T19:16:08.183Z,39.05
2017-11-08T19:18:36.485Z,37.58
2017-11-08T19:21:05.103Z,39.67
2017-11-08T19:23:33.466Z,43.03
2017-11-08T19:26:01.701Z,39.33
2017-11-08T19:31:11.090Z,37.05
2017-11-08T19:33:39.652Z,40.55
2017-11-08T19:36:08.093Z,39.53
2017-11-08T19:38:36.322Z,38.40
2017-11-08T19:41:08.039Z,37.55
2017-11-08T19:43:37.428Z,39.20
2017-11-08T19:46:05.725Z,38.90
2017-11-08T19:48:34.696Z,42.30
2017-11-08T19:51:03.166Z,38.30
2017-11-08T19:53:31.357Z,38.15
2017-11-08T19:55:59.487Z,38.88
2017-11-08T19:58:27.642Z,40.65
2017-11-08T20:00:56.562Z,38.72
2017-11-08T20:03:24.722Z,37.58
2017-11-08T20:05:53.552Z,41.40
2017-11-08T20:08:23.610Z,38.92
2017-11-08T20:10:51.934Z,41.67
2017-11-08T20:13:20.085Z,37.67
2017-11-08T20:15:48.265Z,36.97
2017-11-08T20:18:16.425Z,36.38
2017-11-08T20:20:44.650Z,40.05
2017-11-08T20:23:12.841Z,39.15
2017-11-08T20:25:41.031Z,37.10
2017-11-08T20:28:09.944Z,37.63
2017-11-08T20:30:38.117Z,37.63
2017-11-08T20:33:07.007Z,38.47
2017-11-08T20:35:35.253Z,37.85
2017-11-08T20:38:03.405Z,42.10
2017-11-08T20:40:31.571Z,38.65
2017-11-08T20:42:59.708Z,41.83
2017-11-08T20:45:27.863Z,36.25
2017-11-08T20:47:56.032Z,41.20
2017-11-08T20:50:24.220Z,38.33
2017-11-08T20:52:53.127Z,37.95
2017-11-08T20:55:21.315Z,39.83
2017-11-08T20:57:49.442Z,36.22
2017-11-08T21:00:17.637Z,37.92
2017-11-08T21:02:45.828Z,41.08
2017-11-08T21:05:13.998Z,37.72
2017-11-08T21:07:42.172Z,40.10
2017-11-08T21:10:10.342Z,40.22
2017-11-08T21:12:38.497Z,39.60
2017-11-08T21:15:06.660Z,35.65
2017-11-08T21:17:34.830Z,38.20
2017-11-08T21:20:02.977Z,37.35
2017-11-08T21:22:31.134Z,39.10
2017-11-08T21:24:59.274Z,36.70
2017-11-08T21:27:27.455Z,39.42
2017-11-08T21:29:55.647Z,37.15
2017-11-08T21:32:23.822Z,39.53
2017-11-08T21:34:51.981Z,39.58
2017-11-08T21:37:20.163Z,38.42
2017-11-08T21:39:48.308Z,39.00
2017-11-08T21:42:16.471Z,41.30
2017-11-08T21:44:45.419Z,37.67
2017-11-08T21:47:13.578Z,36.42
2017-11-08T21:49:41.722Z,35.92
2017-11-08T21:52:09.929Z,36.00
2017-11-08T21:54:38.082Z,39.85
2017-11-08T21:57:06.251Z,38.42
2017-11-08T21:59:34.382Z,38.72
2017-11-08T22:02:02.545Z,37.97
2017-11-08T22:04:30.724Z,36.00
2017-11-08T22:06:58.907Z,37.65
2017-11-08T22:09:27.063Z,38.33
2017-11-08T22:11:55.219Z,37.83
2017-11-08T22:14:23.360Z,37.75
2017-11-08T22:16:52.297Z,34.75
2017-11-08T22:19:20.448Z,39.22
2017-11-08T22:21:48.619Z,37.35
2017-11-08T22:24:16.752Z,38.30
2017-11-08T22:26:44.895Z,36.75
2017-11-08T22:29:13.052Z,34.47
2017-11-08T22:31:41.189Z,38.25
2017-11-08T22:34:09.350Z,38.40
2017-11-08T22:36:37.481Z,36.80
2017-11-08T22:39:05.642Z,38.45
2017-11-08T22:41:33.770Z,41.58
2017-11-08T22:44:01.932Z,36.30
2017-11-08T22:46:30.064Z,38.58
2017-11-08T22:48:58.235Z,38.10
2017-11-08T22:51:26.366Z,39.10
2017-11-08T22:53:54.525Z,36.47
2017-11-08T22:56:22.662Z,38.25
2017-11-08T22:58:50.815Z,36.15
2017-11-08T23:01:18.947Z,37.95
2017-11-08T23:03:47.111Z,37.40
2017-11-08T23:06:15.247Z,41.25
2017-11-08T23:08:43.400Z,36.78
2017-11-08T23:11:11.533Z,39.75
2017-11-08T23:13:39.681Z,37.08
2017-11-08T23:16:07.816Z,38.40
2017-11-08T23:18:36.739Z,37.95
2017-11-08T23:21:04.876Z,37.05
2017-11-08T23:23:33.795Z,39.75
2017-11-08T23:26:01.918Z,36.60
2017-11-08T23:28:30.078Z,36.67
2017-11-08T23:30:58.206Z,39.35
2017-11-08T23:33:26.368Z,37.50
2017-11-08T23:35:54.508Z,40.50
2017-11-08T23:38:22.672Z,39.38
2017-11-08T23:40:50.807Z,37.10
2017-11-08T23:43:18.974Z,35.28
2017-11-08T23:45:47.102Z,35.97
2017-11-08T23:48:15.243Z,35.95
2017-11-08T23:50:43.411Z,38.45
2017-11-08T23:53:11.540Z,37.13
2017-11-08T23:55:39.707Z,38.45
2017-11-08T23:58:07.845Z,36.22
